createdAt,value
2023-02-20T00:05:00.117Z,2.40
2023-02-20T00:15:02.419Z,2.45
2023-02-20T00:25:04.278Z,3.47
2023-02-20T00:35:06.392Z,2.63
2023-02-20T00:45:10.315Z,2.55
2023-02-20T00:55:14.086Z,2.70
2023-02-20T01:05:16.206Z,2.70
2023-02-20T01:15:18.506Z,4.75
2023-02-20T01:25:20.437Z,3.58
2023-02-20T01:35:22.312Z,3.88
2023-02-20T01:45:25.376Z,2.33
2023-02-20T01:55:36.885Z,2.13
2023-02-20T02:05:46.177Z,1.17
2023-02-20T02:15:51.981Z,3.97
2023-02-20T02:26:11.403Z,3.15
2023-02-20T02:36:35.726Z,3.33
2023-02-20T02:47:13.313Z,1.25
2023-02-20T02:57:25.459Z,3.78
2023-02-20T03:07:30.275Z,7.32
2023-02-20T03:17:37.765Z,6.20
2023-02-20T03:28:00.060Z,8.13
2023-02-20T03:38:06.786Z,7.75
2023-02-20T03:48:30.161Z,9.60
2023-02-20T03:58:37.290Z,8.23
2023-02-20T04:08:48.540Z,10.80
2023-02-20T04:18:52.775Z,7.55
2023-02-20T04:28:54.820Z,8.43
2023-02-20T04:38:57.553Z,7.85
2023-02-20T04:49:03.682Z,11.52
2023-02-20T04:59:05.721Z,11.75
2023-02-20T05:09:07.962Z,10.27
2023-02-20T05:19:09.835Z,6.85
2023-02-20T05:29:11.862Z,7.03
2023-02-20T05:39:13.684Z,7.07
2023-02-20T05:49:17.527Z,7.80
2023-02-20T05:59:22.043Z,8.23
2023-02-20T06:09:24.089Z,13.73
2023-02-20T06:19:26.379Z,8.15
2023-02-20T06:29:28.280Z,9.60
2023-02-20T06:39:31.287Z,10.02
2023-02-20T06:49:33.124Z,7.68
2023-02-20T06:59:34.982Z,6.97
2023-02-20T07:09:36.854Z,9.82
2023-02-20T07:19:38.740Z,10.32
2023-02-20T07:29:40.573Z,7.90
2023-02-20T07:39:42.454Z,9.68
2023-02-20T07:49:44.427Z,7.68
2023-02-20T07:59:46.299Z,7.75
2023-02-20T08:09:48.292Z,8.10
2023-02-20T08:19:50.210Z,9.02
2023-02-20T08:29:52.205Z,7.72
2023-02-20T08:39:54.098Z,6.03
2023-02-20T08:50:01.826Z,6.75
2023-02-20T09:00:06.019Z,8.38
2023-02-20T09:10:08.188Z,5.03
2023-02-20T09:20:11.117Z,6.32
2023-02-20T09:30:17.546Z,6.55
2023-02-20T09:40:24.844Z,6.18
2023-02-20T09:50:32.625Z,5.60
2023-02-20T10:00:37.569Z,7.78
2023-02-20T10:10:39.666Z,5.00
2023-02-20T10:20:59.653Z,5.78
2023-02-20T10:31:13.103Z,6.90
2023-02-20T10:41:24.181Z,6.47
2023-02-20T10:51:35.212Z,7.38
2023-02-20T11:01:39.076Z,5.20
2023-02-20T11:11:43.286Z,5.97
2023-02-20T11:21:50.410Z,9.43
2023-02-20T11:31:52.370Z,8.40
2023-02-20T11:42:20.804Z,9.23
2023-02-20T11:52:25.601Z,11.18
2023-02-20T12:02:28.636Z,7.43
2023-02-20T12:12:33.012Z,10.10
2023-02-20T12:22:37.239Z,7.88
2023-02-20T12:32:55.609Z,7.35
2023-02-20T12:43:25.547Z,9.50
2023-02-20T12:53:36.159Z,8.33
2023-02-20T13:04:03.076Z,8.38
2023-02-20T13:14:14.127Z,6.93
2023-02-20T13:24:22.131Z,9.65
2023-02-20T13:34:30.991Z,8.60
2023-02-20T13:44:37.163Z,10.87
2023-02-20T13:54:39.004Z,8.02
2023-02-20T14:04:52.949Z,6.45
2023-02-20T14:14:56.476Z,5.72
2023-02-20T14:25:02.657Z,4.18
2023-02-20T14:35:13.304Z,4.85
2023-02-20T14:45:26.160Z,5.78
2023-02-20T14:55:28.134Z,3.22
2023-02-20T15:05:33.195Z,4.50
2023-02-20T15:15:43.018Z,4.32
2023-02-20T15:25:45.407Z,3.80
2023-02-20T15:35:49.622Z,3.63
2023-02-20T15:45:52.030Z,2.97
2023-02-20T15:55:55.153Z,3.53
2023-02-20T16:05:57.796Z,3.83
2023-02-20T16:16:02.122Z,3.53
2023-02-20T16:26:04.952Z,5.03
2023-02-20T16:36:08.830Z,7.10
2023-02-20T16:46:13.419Z,5.95
2023-02-20T16:56:15.692Z,4.50
2023-02-20T17:06:18.084Z,4.05
2023-02-20T17:16:30.674Z,4.10
2023-02-20T17:26:36.118Z,3.72
2023-02-20T17:36:37.923Z,3.85
2023-02-20T17:46:39.962Z,3.67
2023-02-20T17:56:43.436Z,3.53
2023-02-20T18:06:45.996Z,4.88
2023-02-20T18:16:47.962Z,4.55
2023-02-20T18:26:50.084Z,5.28
2023-02-20T18:36:53.088Z,6.05
2023-02-20T18:46:54.995Z,4.43
2023-02-20T18:56:56.843Z,4.18
2023-02-20T19:06:59.038Z,5.07
2023-02-20T19:17:02.863Z,5.32
2023-02-20T19:27:05.270Z,3.38
2023-02-20T19:37:07.158Z,3.58
2023-02-20T19:47:09.702Z,3.58
2023-02-20T19:57:12.256Z,4.53
2023-02-20T20:07:14.334Z,3.15
2023-02-20T20:17:16.232Z,4.20
2023-02-20T20:27:18.382Z,3.55
2023-02-20T20:37:23.568Z,3.00
2023-02-20T20:47:27.719Z,3.90
2023-02-20T20:57:32.259Z,1.70
2023-02-20T21:07:37.742Z,3.03
2023-02-20T21:17:45.505Z,2.45
2023-02-20T21:27:47.921Z,3.20
2023-02-20T21:37:50.852Z,2.97
2023-02-20T21:47:52.652Z,3.72
2023-02-20T21:57:54.425Z,3.17
2023-02-20T22:07:56.613Z,4.60
2023-02-20T22:17:58.471Z,6.65
2023-02-20T22:28:00.288Z,7.60
2023-02-20T22:38:02.187Z,7.35
2023-02-20T22:48:04.468Z,5.03
2023-02-20T22:58:06.404Z,4.32
2023-02-20T23:08:08.327Z,4.05
2023-02-20T23:18:10.191Z,4.90
2023-02-20T23:28:12.190Z,5.03
2023-02-20T23:38:14.510Z,2.85
2023-02-20T23:48:16.345Z,3.88
2023-02-20T23:58:18.264Z,3.60
